createdAt,value
2023-01-10T06:05:11.191Z,80.41
2023-01-10T06:07:40.305Z,79.29
2023-01-10T06:10:08.940Z,79.37
2023-01-10T06:12:35.746Z,78.87
2023-01-10T06:15:04.189Z,79.21
2023-01-10T06:17:31.235Z,79.68
2023-01-10T06:19:58.091Z,79.21
2023-01-10T06:22:43.813Z,78.87
2023-01-10T06:25:11.447Z,78.53
2023-01-10T06:27:42.016Z,78.58
2023-01-10T06:30:10.231Z,78.47
2023-01-10T06:32:37.164Z,77.76
2023-01-10T06:35:04.365Z,77.40
2023-01-10T06:37:31.187Z,77.13
2023-01-10T06:39:58.199Z,77.00
2023-01-10T06:42:25.143Z,76.88
2023-01-10T06:44:52.297Z,77.02
2023-01-10T06:47:19.179Z,77.30
2023-01-10T06:49:46.061Z,77.24
2023-01-10T06:52:12.859Z,76.88
2023-01-10T06:54:41.475Z,76.78
2023-01-10T06:57:08.673Z,76.41
2023-01-10T06:59:35.597Z,75.93
2023-01-10T07:02:02.557Z,75.90
2023-01-10T07:04:29.584Z,75.45
2023-01-10T07:06:56.520Z,75.49
2023-01-10T07:09:23.411Z,75.23
2023-01-10T07:11:50.397Z,74.66
2023-01-10T07:14:17.361Z,74.15
2023-01-10T07:16:44.223Z,73.85
2023-01-10T07:19:13.530Z,73.99
2023-01-10T07:21:40.442Z,73.76
2023-01-10T07:24:08.440Z,73.27
2023-01-10T07:26:36.130Z,73.22
2023-01-10T07:29:03.664Z,72.85
2023-01-10T07:31:30.482Z,72.91
2023-01-10T07:33:58.108Z,73.38
2023-01-10T07:36:24.904Z,73.03
2023-01-10T07:38:51.864Z,72.30
2023-01-10T07:41:18.679Z,72.08
2023-01-10T07:43:45.500Z,72.10
2023-01-10T07:46:12.628Z,71.94
2023-01-10T07:48:41.914Z,71.78
2023-01-10T07:51:08.987Z,71.29
2023-01-10T07:53:35.831Z,71.30
2023-01-10T12:11:31.594Z,63.54
2023-01-10T12:14:00.221Z,63.38
2023-01-10T12:16:31.882Z,63.43
2023-01-10T12:19:02.994Z,63.16
2023-01-10T12:21:39.835Z,63.35
2023-01-10T12:24:12.464Z,63.25
2023-01-10T12:26:39.260Z,63.45
2023-01-10T12:29:09.108Z,63.36
2023-01-10T12:31:36.813Z,63.52
2023-01-10T12:34:07.776Z,63.55
2023-01-10T12:36:56.189Z,63.64
2023-01-10T12:39:27.070Z,63.41
2023-01-10T12:42:27.996Z,63.59
2023-01-10T12:44:58.092Z,62.85
2023-01-10T12:47:24.993Z,62.39
2023-01-10T12:49:56.792Z,62.43
2023-01-10T12:52:49.111Z,62.37
2023-01-10T12:55:17.676Z,62.04
2023-01-10T12:57:51.587Z,61.99
2023-01-10T13:00:19.541Z,61.97
2023-01-10T13:02:46.809Z,61.85
2023-01-10T13:05:20.002Z,61.82
2023-01-10T13:07:47.608Z,61.76
2023-01-10T13:10:20.548Z,61.62
2023-01-10T13:12:49.653Z,61.49
2023-01-10T13:15:35.326Z,61.18
2023-01-10T13:18:15.708Z,60.39
2023-01-10T13:20:42.740Z,60.16
2023-01-10T13:23:15.607Z,60.44
2023-01-10T13:25:42.570Z,60.15
2023-01-10T13:28:19.778Z,59.94
2023-01-10T13:30:53.075Z,59.83
2023-01-10T13:33:22.752Z,59.33
2023-01-10T13:35:49.622Z,58.75
2023-01-10T13:38:46.279Z,58.79
2023-01-10T13:41:33.021Z,58.56
2023-01-10T13:44:04.476Z,58.28
2023-01-10T13:46:31.274Z,58.44
2023-01-10T13:49:00.418Z,58.47
2023-01-10T13:51:27.628Z,58.01
2023-01-10T13:54:03.628Z,57.55
2023-01-10T13:56:34.521Z,57.19
2023-01-10T13:59:20.083Z,57.18
2023-01-10T14:02:10.111Z,57.16
2023-01-10T14:04:39.264Z,57.80
2023-01-10T14:07:18.247Z,57.80
2023-01-10T14:09:46.077Z,58.02
2023-01-10T14:12:23.784Z,57.87
2023-01-10T14:15:06.046Z,57.92
2023-01-10T14:17:34.830Z,57.95
2023-01-10T14:20:06.347Z,57.69
2023-01-10T14:22:37.486Z,57.82
2023-01-10T14:25:20.608Z,57.54
2023-01-10T14:27:48.194Z,57.45
2023-01-10T14:30:29.228Z,57.07
2023-01-10T14:32:58.048Z,56.86
2023-01-10T14:35:32.625Z,57.01
2023-01-10T14:37:59.601Z,56.97
2023-01-10T14:40:32.454Z,57.08
2023-01-10T14:43:02.879Z,56.57
2023-01-10T14:45:35.165Z,56.80
2023-01-10T14:48:37.902Z,56.97
2023-01-10T14:51:08.767Z,56.52
2023-01-10T14:53:35.597Z,56.76
2023-01-10T14:56:02.403Z,56.54
2023-01-10T14:58:29.252Z,56.67
2023-01-10T15:00:56.158Z,56.28
2023-01-10T15:03:24.603Z,56.67
2023-01-10T15:05:55.165Z,56.72
2023-01-10T15:08:30.279Z,55.93
2023-01-10T15:11:02.408Z,56.05
2023-01-10T15:13:30.353Z,55.72
2023-01-10T15:15:57.209Z,55.68
2023-01-10T15:18:36.469Z,55.36
2023-01-10T15:21:03.384Z,55.39
2023-01-10T15:23:36.689Z,55.40
2023-01-10T15:26:06.219Z,55.10
2023-01-10T15:28:35.885Z,54.91
2023-01-10T15:31:06.341Z,54.55
2023-01-10T15:33:34.597Z,54.47
2023-01-10T15:36:04.680Z,53.89
2023-01-10T15:38:34.235Z,54.05
2023-01-10T15:41:02.716Z,54.25
2023-01-10T15:43:32.773Z,53.93
2023-01-10T15:46:00.757Z,54.13
2023-01-10T15:48:39.027Z,53.50
2023-01-10T15:51:27.394Z,53.64
2023-01-10T15:54:03.177Z,53.89
2023-01-10T15:56:32.434Z,53.36
2023-01-10T15:58:59.395Z,53.52
2023-01-10T16:01:28.664Z,53.36
2023-01-10T23:16:22.463Z,78.84
2023-01-10T23:18:49.588Z,78.44
2023-01-10T23:21:16.705Z,77.54
2023-01-10T23:23:43.634Z,76.74
2023-01-10T23:26:11.611Z,76.51
2023-01-10T23:28:40.941Z,75.86
2023-01-10T23:31:08.552Z,75.26
2023-01-10T23:33:35.505Z,75.23
2023-01-10T23:36:02.531Z,75.27
2023-01-10T23:38:29.404Z,75.75
2023-01-10T23:40:56.314Z,75.63
2023-01-10T23:43:23.768Z,75.28
2023-01-10T23:45:50.827Z,75.16
2023-01-10T23:48:17.952Z,75.16
2023-01-10T23:50:49.707Z,75.86
2023-01-10T23:53:17.418Z,75.79
2023-01-10T23:55:44.261Z,76.39
2023-01-10T23:58:11.146Z,76.59
